Motte Rimrock Reserve, California Weather observations

Data are for 10 minute period ending at time listed.
 Day   Time   Solar   Ave.   Ave.  Ave.  Vector  Max.   Baro.   Total    
  of    of     Rad.   Air    Rel.  Wind   Wind   Wind  Press.  Precip.   
Year   Day            Temp.  Hum.  Speed  Dir.   Gust                    
2014   (PST)  Kw/m2    F      %     mph   deg.    mph    mb.     in.     
-------------------------------------------------------------------------
 354   22:00   0.00   48.8    86    1.0   295     2.3   952.3    0.00 
 354   22:10   0.00   49.9    87    1.8   110     3.7   952.3    0.00 
 354   22:20   0.00   50.0    88    2.4    94     3.7   952.2    0.00 
 354   22:30   0.00   49.7    89    4.4   109     5.2   952.1    0.00 
 354   22:40   0.00   49.6    90    5.6   100     6.6   951.9    0.00 
 354   22:50   0.00   49.1    89    5.0    99     6.1   951.9    0.00 
 354   23:00   0.00   48.8    88    4.4   103     5.0   951.9    0.00 
 354   23:10   0.00   48.7    89    4.2    89     5.0   951.9    0.00 
 354   23:20   0.00   48.4    89    3.6    75     4.2   952.0    0.00 
 354   23:30   0.00   47.9    89    5.2    86     6.8   951.9    0.00 
 354   23:40   0.00   47.4    89    5.4    88     6.9   951.9    0.00 
 354   23:50   0.00   47.2    90    6.1   112     7.1   951.7    0.00 
 355    0:00   0.00   47.7    91    5.4   130     6.4   951.9    0.00 
 355    0:10   0.00   47.7    90    4.9   126     6.2   952.0    0.00 
 355    0:20   0.00   47.2    90    4.6   138     5.4   951.9    0.00 
 355    0:30   0.00   47.0    91    5.4   135     6.0   951.9    0.00 
 355    0:40   0.00   47.2    91    5.6   130     6.9   951.9    0.00 
 355    0:50   0.00   47.7    92    4.6   126     5.3   952.0    0.00 
 355    1:00   0.00   47.6    92    3.6   141     4.7   952.0    0.00 
 355    1:10   0.00   47.7    93    3.5   145     4.3   951.9    0.00 
 355    1:20   0.00   47.9    93    2.7   159     3.7   951.9    0.00 
 355    1:30   0.00   48.2    93    2.0   167     2.3   951.9    0.00 
 355    1:40   0.00   48.5    94    2.3   159     2.9   951.9    0.00 
 355    1:50   0.00   48.3    94    3.2   182     3.7   951.8    0.00 
 355    2:00   0.00   48.1    94    3.2   171     3.6   951.6    0.00 
 355    2:10   0.00   47.8    94    3.3   155     4.5   951.5    0.00 
 355    2:20   0.00   47.2    94    3.6   136     4.6   951.5    0.00 
 355    2:30   0.00   47.0    95    1.1   146     2.0   951.7    0.00 
 355    2:40   0.00   46.7    95    2.7   147     3.5   951.5    0.00 
 355    2:50   0.00   46.8    95    2.5   137     2.9   951.4    0.00 
 355    3:00   0.00   47.3    95    1.6   134     2.9   951.4    0.00 
 355    3:10   0.00   47.2    95    3.5    73     5.0   951.3    0.00 
 355    3:20   0.00   46.5    95    4.5   102     5.4   951.0    0.00 
 355    3:30   0.00   46.8    95    5.9   103     7.4   950.9    0.00 
 355    3:40   0.00   45.9    95    3.5   151     4.8   950.9    0.00 
 355    3:50   0.00   45.1    95    3.1   159     3.7   950.8    0.00 
 355    4:00   0.00   45.2    95    3.3   166     4.5   950.6    0.00 
 355    4:10   0.00   44.8    95    4.0   205     4.7   950.5    0.00 
 355    4:20   0.00   44.7    95    5.1   209     5.8   950.3    0.00 
 355    4:30   0.00   45.1    96    4.4   223     5.0   950.3    0.00 
 355    4:40   0.00   46.0    96    2.3   208     3.1   950.3    0.00 
 355    4:50   0.00   46.9    96    1.3   196     1.9   950.3    0.00 
 355    5:00   0.00   47.3    96    0.6   196     1.5   950.5    0.00 
 355    5:10   0.00   48.1    96    0.6    86     2.3   950.5    0.01 
 355    5:20   0.00   47.2    96    3.6    46     4.3   950.6    0.00 
 355    5:30   0.00   46.7    96    3.6    40     4.8   950.7    0.00 
 355    5:40   0.00   46.6    95    5.5    40     6.1   950.9    0.00 
 355    5:50   0.00   46.5    95    4.8    45     6.1   950.9    0.00 
 355    6:00   0.00   46.7    94    4.5    45     5.2   950.8    0.00 
 355    6:10   0.00   46.7    93    4.3    45     5.3   951.0    0.00 
 355    6:20   0.00   47.1    92    2.0    48     3.6   951.1    0.00 
 355    6:30   0.00   47.9    91    0.8    95     2.0   951.0    0.00 
 355    6:40   0.00   48.2    90    1.8    58     4.4   951.1    0.00 
 355    6:50   0.00   47.3    89    4.4    48     4.8   951.4    0.00 
 355    7:00   0.00   47.4    90    4.0    55     5.3   951.6    0.00 
 355    7:10   0.02   47.6    90    3.5    54     4.4   951.5    0.00 
 355    7:20   0.04   48.1    89    4.3    82     5.2   951.3    0.00 
 355    7:30   0.04   48.5    88    2.9   124     5.2   951.2    0.00 
 355    7:40   0.05   47.1    89    3.2   176     5.1   951.2    0.00 
 355    7:50   0.07   46.1    90    2.2   229     3.7   951.4    0.00 
 355    8:00   0.10   47.0    91    1.7   156     3.1   951.6    0.00 
 355    8:10   0.11   48.5    90    2.8   134     3.9   951.7    0.00 
 355    8:20   0.14   49.2    88    1.8   139     3.8   952.0    0.00 
 355    8:30   0.14   49.8    88    1.8   120     3.8   952.1    0.00 
 355    8:40   0.08   49.7    87    2.4   170     3.4   952.2    0.00 
 355    8:50   0.25   49.7    88    3.2   120     5.8   952.2    0.00 
 355    9:00   0.32   50.0    86    4.9    97     7.2   952.3    0.00 
 355    9:10   0.34   50.4    84    4.5   126     6.4   952.3    0.00 
 355    9:20   0.32   51.3    83    3.6   132     4.8   952.4    0.00 
 355    9:30   0.32   51.5    82    3.9   164     5.8   952.3    0.00 
 355    9:40   0.31   51.0    83    5.1   172     6.4   952.2    0.00 
 355    9:50   0.27   51.0    83    4.7   179     6.1   952.3    0.00 
 355   10:00   0.31   52.2    81    3.3   160     4.6   952.2    0.00 
 355   10:10   0.31   52.7    79    3.6   179     4.8   952.1    0.00 
 355   10:20   0.36   53.4    79    4.7   178     6.1   952.0    0.00 
 355   10:30   0.46   54.1    78    3.9   193     6.1   952.0    0.00 
 355   10:40   0.35   54.6    76    2.9   191     4.2   952.0    0.00 
 355   10:50   0.35   55.3    74    2.6   233     4.2   952.0    0.00 
 355   11:00   0.36   57.1    70    0.7   295     2.3   951.9    0.00 
 355   11:10   0.26   57.6    69    1.0    60     2.4   951.9    0.00 
 355   11:20   0.44   58.4    69    1.4   124     3.1   951.7    0.00 
 355   11:30   0.48   59.0    67    1.7    50     3.9   951.8    0.00 
 355   11:40   0.42   58.4    69    3.0    50     4.7   951.7    0.00 
 355   11:50   0.41   58.6    68    3.2    46     5.0   951.6    0.00 
 355   12:00   0.39   58.5    67    3.7    35     6.1   951.6    0.00 
 355   12:10   0.42   58.9    66    3.4    63     5.3   951.3    0.00 
 355   12:20   0.49   59.8    62    1.7    22     3.7   951.0    0.00 
 355   12:30   0.49   60.9    58    2.4   334     4.6   950.8    0.00 
 355   12:40   0.54   61.3    56    3.6   319     6.1   950.8    0.00 
 355   12:50   0.54   62.3    54    3.5   324     5.8   950.7    0.00 
 355   13:00   0.48   62.2    55    4.4   319     6.9   950.5    0.00 
 355   13:10   0.50   62.4    55    4.6   306     7.4   950.4    0.00 
 355   13:20   0.48   62.7    56    5.4   316     7.5   950.3    0.00 
 355   13:30   0.45   62.8    55    4.7   322     7.0   950.1    0.00 
 355   13:40   0.39   62.8    55    3.8   338     6.8   950.0    0.00 
 355   13:50   0.42   62.9    55    4.0   320     6.6   949.8    0.00 
 355   14:00   0.49   63.9    54    3.1   341     6.6   949.8    0.00 
 355   14:10   0.34   64.5    53    2.8   317     5.2   949.8    0.00 
 355   14:20   0.36   64.0    54    3.7   288     5.9   949.8    0.00 
 355   14:30   0.35   64.4    55    3.6   327     6.5   949.8    0.00 
 355   14:40   0.32   64.1    57    3.8   334     6.0   949.8    0.00 
 355   14:50   0.26   64.3    58    2.7   345     5.6   949.7    0.00 
 355   15:00   0.21   63.9    56    3.6   328     6.1   949.7    0.00 
 355   15:10   0.17   63.4    55    5.0   346     6.9   949.7    0.00 
 355   15:20   0.19   63.1    55    4.0     3     6.0   949.7    0.00 
 355   15:30   0.14   63.2    53    2.7     7     4.2   949.7    0.00 
 355   15:40   0.12   62.8    54    3.5   348     4.4   949.7    0.00 
 355   15:50   0.09   62.5    56    4.1   337     5.2   949.8    0.00 
 355   16:00   0.08   62.1    58    4.4   328     5.7   949.7    0.00 
 355   16:10   0.06   61.6    60    5.4   318     7.2   949.7    0.00 
 355   16:20   0.05   60.7    63    7.1   319     8.3   949.7    0.00 
 355   16:30   0.02   59.8    64    6.9   313     8.6   949.6    0.00 
 355   16:40   0.01   59.1    66    7.6   314     8.7   949.6    0.00 
 355   16:50   0.00   58.4    67    6.7   309     9.1   949.6    0.00 
 355   17:00   0.00   58.0    68    7.1   309     8.9   949.4    0.00 
 355   17:10   0.00   57.6    69    7.8   315     9.8   949.4    0.00 
 355   17:20   0.00   57.0    70    8.2   317     9.8   949.5    0.00 
 355   17:30   0.00   56.9    70    7.6   316     9.3   949.5    0.00 
 355   17:40   0.00   56.7    70    6.8   309     8.4   949.4    0.00 
 355   17:50   0.00   56.3    71    5.4   310     6.5   949.3    0.00 
 355   18:00   0.00   56.3    71    5.5   311     7.8   949.2    0.00 
 355   18:10   0.00   56.0    71    6.8   314     8.4   949.2    0.00 
 355   18:20   0.00   55.8    71    7.9   318    10.3   949.3    0.00 
 355   18:30   0.00   55.8    71    7.9   318     9.9   949.4    0.00 
 355   18:40   0.00   55.7    72    8.0   322    10.1   949.5    0.00 
 355   18:50   0.00   55.6    72    7.6   321     9.7   949.6    0.00 
 355   19:00   0.00   55.4    73    7.9   318    10.2   949.7    0.00 
 355   19:10   0.00   55.3    73    8.5   313    10.2   949.8    0.00 
 355   19:20   0.00   55.6    72    8.2   308    10.2   949.8    0.00 
 355   19:30   0.00   55.9    70    6.5   308     8.7   949.8    0.00 
 355   19:40   0.00   55.8    70    5.9   324     6.9   949.7    0.00 
 355   19:50   0.00   56.5    66    6.0   346     7.4   949.8    0.00 
 355   20:00   0.00   57.5    61    4.8   358     6.3   949.6    0.00 
 355   20:10   0.00   58.2    59    4.1    26     6.4   949.6    0.00 
 355   20:20   0.00   57.6    62    4.1    51     5.2   949.8    0.00 
 355   20:30   0.00   57.0    64    4.1    72     5.9   949.9    0.00 
 355   20:40   0.00   56.6    67    3.3   109     5.8   949.8    0.00 
 355   20:50   0.00   55.3    70    1.4   190     4.1   949.8    0.00 
 355   21:00   0.00   54.8    71    0.8   250     2.0   949.7    0.00 
 355   21:10   0.00   54.9    71    2.9   310     4.5   949.6    0.00 
 355   21:20   0.00   57.1    65    4.4    78     7.2   949.5    0.00 
 355   21:30   0.00   55.1    71    5.9   147     6.8   949.5    0.00 
 355   21:40   0.00   55.5    69    2.7   184     4.3   949.7    0.00 
 355   21:50   0.00   56.9    65    1.1   144     5.3   949.8    0.00 

Return to Motte Rimrock Reserve graphs page.


Western Regional Climate Center,wrcc@dri.edu